Impacts METAR Board
IDs:

KMSP - Minneapolis-St Paul, MN, US

Updated at: 0100 UTC 25 Mar 2019
Potential Impact None Slight Moderate High
Time 24/13Z 24/14Z 24/15Z 24/16Z 24/17Z 24/18Z 24/19Z 24/20Z 24/21Z 24/22Z 24/23Z 25/00Z 25/01Z
Temp41 42 43 45 49 53 53 50 47 48 44 41 39
Dewpt34 35 34 35 36 37 35 34 32 32 29 26 25
Altim30.09 30.10 30.11 30.12 30.11 30.11 30.11 30.12 30.14 30.14 30.16 30.20 30.22
VIS8 8 7 7 9 10 10 10 10 10 10 10 10
CIG49 49 49 48 250 250 250 250 250 70 70 55 48
CoverOVCOVCOVCBKNBKNBKNBKNBKNBKNBKNBKNBKNOVC
FltCatVFRVFRVFRVFRVFRVFRVFRVFRVFRVFRVFRVFRVFR
WX--------------------------
WDir0000403030302040202030
WSpd0 0 0 3 6 10 8 14 11 11 15 15 13
WGst-- -- -- -- -- -- 22 -- -- 23 22 -- --
Raw hourly METARs
KMSP 241253Z 00000KT 8SM OVC049 05/01 A3009 RMK AO2 SLP195 T00500011
KMSP 241353Z 00000KT 8SM BKN049 OVC065 06/02 A3010 RMK AO2 SLP200 T00560017
KMSP 241453Z 00000KT 7SM BKN049 OVC065 06/01 A3011 RMK AO2 SLP203 T00610011 53009
KMSP 241553Z VRB03KT 7SM BKN048 BKN100 07/02 A3012 RMK AO2 SLP206 T00720017
KMSP 241653Z 04006KT 9SM FEW048 SCT100 BKN250 09/02 A3011 RMK AO2 SLP203 T00940022
KMSP 241753Z 03010KT 10SM FEW048 SCT100 BKN250 12/03 A3011 RMK AO2 SLP200 T01170028 10117 20033 58001
KMSP 241853Z 03008G22KT 10SM SCT040 BKN250 12/02 A3011 RMK AO2 PK WND 02027/1823 SLP200 T01170017
KMSP 241953Z 03014KT 10SM SCT065 BKN250 10/01 A3012 RMK AO2 SLP205 T01000011
KMSP 242053Z 02011KT 10SM SCT070 BKN250 08/00 A3014 RMK AO2 SLP213 T00830000 53010
KMSP 242153Z 04011G23KT 10SM SCT055 BKN070 BKN250 09/00 A3014 RMK AO2 SLP213 T00890000
KMSP 242253Z 02015G22KT 10SM FEW055 BKN070 07/M02 A3016 RMK AO2 SLP221 T00671017
KMSP 242353Z 02015KT 10SM BKN055 05/M03 A3020 RMK AO2 PK WND 04027/2333 SLP233 T00501033 10122 20050 53019
KMSP 250053Z 03013KT 10SM FEW036 OVC048 04/M04 A3022 RMK AO2 SLP242 T00391039



Page loaded:  01:54 UTC  |   06:54 PM Pacific  |   07:54 PM Mountain  |   08:54 PM Central  |   09:54 PM Eastern

 

ADVISORIES

FORECASTS

FORECASTS

OBSERVATIONS

USER TOOLS

ABOUT US